Time;durP1;ratioP1;P1;durP2;ratioP2;P2;SDS_P1;SDS_P2;PMS_P1;PMS_P2;Temp;Humidity;BMP_temperature;BMP_pressure;BME280_temperature;BME280_humidity;BME280_pressure;Samples;Min_cycle;Max_cycle;Signal;HPM_P1;HPM_P2
2023/08/12 00:00:16;;;;;;;5.30;4.75;;;17.00;99.90;;;;;;4981846;28;20049;-79
2023/08/12 00:02:45;;;;;;;5.55;4.68;;;17.00;99.90;;;;;;4959494;28;20121;-79
2023/08/12 00:05:12;;;;;;;6.07;4.13;;;17.00;99.90;;;;;;4988938;28;20050;-79
2023/08/12 00:07:41;;;;;;;5.65;5.00;;;17.10;99.90;;;;;;4988931;28;20211;-80
2023/08/12 00:10:08;;;;;;;7.32;4.55;;;17.10;99.90;;;;;;4993559;28;20035;-78
2023/08/12 00:12:35;;;;;;;7.25;4.63;;;17.10;99.90;;;;;;4985653;28;20428;-80
2023/08/12 00:15:02;;;;;;;6.43;4.78;;;17.10;99.90;;;;;;4987747;28;20042;-79
2023/08/12 00:17:28;;;;;;;5.95;5.00;;;17.10;99.90;;;;;;4995107;28;20394;-80
2023/08/12 00:19:54;;;;;;;5.60;4.78;;;17.00;99.90;;;;;;4993975;28;20043;-81
2023/08/12 00:22:20;;;;;;;5.63;4.38;;;17.00;99.90;;;;;;4988922;28;20034;-80
2023/08/12 00:24:45;;;;;;;5.18;4.68;;;17.00;99.90;;;;;;4996145;28;20038;-81
2023/08/12 00:27:11;;;;;;;5.03;4.60;;;17.00;99.90;;;;;;4996665;28;20049;-80
2023/08/12 00:29:37;;;;;;;6.22;4.57;;;17.00;99.90;;;;;;4978730;28;20038;-80
2023/08/12 00:32:03;;;;;;;4.78;4.32;;;17.00;99.90;;;;;;4971726;28;20046;-80
2023/08/12 00:34:31;;;;;;;5.38;4.88;;;17.00;99.90;;;;;;4978299;28;20035;-80
2023/08/12 00:36:57;;;;;;;8.60;4.88;;;17.00;99.90;;;;;;4987000;28;20046;-80
2023/08/12 00:39:22;;;;;;;4.88;4.38;;;17.00;99.90;;;;;;4974945;28;20046;-80
2023/08/12 00:41:48;;;;;;;4.93;4.43;;;16.90;99.90;;;;;;4972729;28;20045;-80
2023/08/12 00:44:14;;;;;;;5.28;4.78;;;16.90;99.90;;;;;;4991704;28;20022;-80
2023/08/12 00:46:42;;;;;;;6.75;5.07;;;16.90;99.90;;;;;;4979550;28;20042;-81
2023/08/12 00:49:09;;;;;;;7.18;5.55;;;16.90;99.90;;;;;;4979575;28;20093;-77
2023/08/12 00:51:35;;;;;;;5.75;4.90;;;16.80;99.90;;;;;;4973462;28;20053;-79
2023/08/12 00:54:05;;;;;;;6.10;5.32;;;16.80;99.90;;;;;;4977329;28;20030;-80
2023/08/12 00:56:31;;;;;;;5.05;4.55;;;16.80;99.90;;;;;;4963574;28;20150;-79
2023/08/12 00:58:59;;;;;;;5.65;5.03;;;16.70;99.90;;;;;;4997162;28;20487;-80
2023/08/12 01:01:26;;;;;;;6.43;4.95;;;16.70;99.90;;;;;;4977471;28;20140;-79
2023/08/12 01:03:54;;;;;;;6.85;5.05;;;16.70;99.90;;;;;;4979391;28;20031;-80
2023/08/12 01:06:20;;;;;;;6.05;4.68;;;16.60;99.90;;;;;;4991761;28;20399;-81
2023/08/12 01:08:47;;;;;;;4.80;4.40;;;16.60;99.90;;;;;;4978111;28;20023;-81
2023/08/12 01:11:16;;;;;;;5.63;5.07;;;16.50;99.90;;;;;;4996476;28;20029;-81
2023/08/12 01:13:53;;;;;;;6.00;4.93;;;16.40;99.90;;;;;;4973876;28;20388;-80
2023/08/12 01:16:21;;;;;;;6.75;5.35;;;16.40;99.90;;;;;;4964191;28;20030;-80
2023/08/12 01:18:49;;;;;;;9.63;6.03;;;16.30;99.90;;;;;;4980701;28;20038;-80
2023/08/12 01:21:22;;;;;;;4.93;4.53;;;16.30;99.90;;;;;;4972156;28;20058;-80
2023/08/12 01:23:48;;;;;;;20.55;5.25;;;16.30;99.90;;;;;;4963934;28;20062;-80
2023/08/12 01:26:13;;;;;;;5.93;5.43;;;16.30;99.90;;;;;;4994415;28;20045;-81
2023/08/12 01:28:39;;;;;;;6.55;5.30;;;16.40;99.90;;;;;;4982476;28;20041;-79
2023/08/12 01:31:20;;;;;;;6.28;5.38;;;16.30;99.90;;;;;;4988927;28;20464;-80
2023/08/12 01:34:11;;;;;;;6.90;4.72;;;16.30;99.90;;;;;;4975323;28;20949;-80
2023/08/12 01:36:39;;;;;;;5.47;4.60;;;16.40;99.90;;;;;;4993952;28;20121;-80
2023/08/12 01:39:08;;;;;;;5.28;4.78;;;16.40;99.90;;;;;;4978489;28;20030;-81
2023/08/12 01:41:35;;;;;;;6.88;5.43;;;16.40;99.90;;;;;;4968883;28;20027;-79
2023/08/12 01:44:02;;;;;;;7.05;5.57;;;16.40;99.90;;;;;;4992648;28;20391;-80
2023/08/12 01:46:28;;;;;;;6.85;5.22;;;16.40;99.90;;;;;;4981225;28;20037;-80
2023/08/12 01:48:54;;;;;;;5.30;4.90;;;16.40;99.90;;;;;;4979394;28;20034;-80
2023/08/12 01:51:20;;;;;;;5.50;5.00;;;16.30;99.90;;;;;;4975811;28;20038;-80
2023/08/12 01:53:45;;;;;;;5.40;4.93;;;16.30;99.90;;;;;;4996068;28;20143;-79
2023/08/12 01:56:12;;;;;;;5.32;4.82;;;16.30;99.90;;;;;;4968829;28;20161;-81
2023/08/12 01:58:37;;;;;;;5.82;5.28;;;16.30;99.90;;;;;;4983230;28;20585;-80
2023/08/12 02:01:03;;;;;;;7.88;5.63;;;16.30;99.90;;;;;;4977981;28;20647;-82
2023/08/12 02:03:29;;;;;;;5.95;5.38;;;16.30;99.90;;;;;;4975748;28;20093;-81
2023/08/12 02:05:54;;;;;;;8.85;5.93;;;16.40;99.90;;;;;;4974756;28;20058;-83
2023/08/12 02:08:21;;;;;;;6.20;5.47;;;16.40;99.90;;;;;;4963870;28;20046;-80
2023/08/12 02:10:47;;;;;;;5.80;5.30;;;16.40;99.90;;;;;;4958256;28;20075;-81
2023/08/12 02:13:12;;;;;;;7.10;5.53;;;16.50;99.90;;;;;;4977558;28;20638;-81
2023/08/12 02:15:38;;;;;;;6.50;5.03;;;16.50;99.90;;;;;;4981780;28;20027;-81
2023/08/12 02:18:10;;;;;;;6.00;5.22;;;16.50;99.90;;;;;;4981841;28;20068;-83
2023/08/12 02:20:36;;;;;;;6.25;5.65;;;16.50;99.90;;;;;;4979668;28;20405;-82
2023/08/12 02:23:01;;;;;;;5.45;5.05;;;16.50;99.90;;;;;;4974902;28;20058;-81
2023/08/12 02:25:28;;;;;;;6.45;5.57;;;16.60;99.90;;;;;;4996281;28;20046;-84
2023/08/12 02:27:54;;;;;;;5.88;5.38;;;16.60;99.90;;;;;;4980235;28;20596;-84
2023/08/12 02:30:20;;;;;;;5.95;5.40;;;16.60;99.90;;;;;;4977795;28;20177;-83
2023/08/12 02:32:46;;;;;;;6.43;5.30;;;16.70;99.90;;;;;;4977536;28;20034;-81
2023/08/12 02:35:12;;;;;;;5.68;5.20;;;16.70;99.90;;;;;;4969530;28;20115;-83
2023/08/12 02:37:37;;;;;;;5.70;5.20;;;16.70;99.90;;;;;;4981128;28;20343;-78
2023/08/12 02:40:04;;;;;;;6.15;5.35;;;16.80;99.90;;;;;;4979121;28;20502;-80
2023/08/12 02:42:30;;;;;;;7.20;5.13;;;16.70;99.90;;;;;;4993944;28;20125;-80
2023/08/12 02:44:56;;;;;;;5.80;5.28;;;16.80;99.90;;;;;;4972323;28;20066;-82
2023/08/12 02:47:22;;;;;;;5.80;5.30;;;16.80;99.90;;;;;;4993247;28;20030;-80
2023/08/12 02:49:48;;;;;;;6.30;5.70;;;16.80;99.90;;;;;;4975050;28;20046;-81
2023/08/12 02:52:14;;;;;;;7.28;4.93;;;16.80;99.90;;;;;;4972988;28;20070;-81
2023/08/12 02:54:40;;;;;;;5.03;4.57;;;16.70;99.90;;;;;;4975656;28;20034;-81
2023/08/12 02:57:06;;;;;;;4.82;4.25;;;16.70;99.90;;;;;;4983704;28;20027;-81
2023/08/12 02:59:31;;;;;;;6.57;4.50;;;16.70;99.90;;;;;;4974219;28;20045;-79
2023/08/12 03:01:57;;;;;;;5.85;5.30;;;16.60;99.90;;;;;;4974698;28;20042;-82
2023/08/12 03:04:23;;;;;;;6.20;5.63;;;16.60;99.90;;;;;;4991186;28;20066;-80
2023/08/12 03:06:48;;;;;;;6.57;5.32;;;16.60;99.90;;;;;;4975002;28;20525;-80
2023/08/12 03:09:33;;;;;;;8.00;5.47;;;16.70;99.90;;;;;;4986700;28;20114;-80
2023/08/12 03:12:01;;;;;;;7.05;5.38;;;16.70;99.90;;;;;;4988949;28;20034;-81
2023/08/12 03:14:29;;;;;;;5.38;4.97;;;16.70;99.90;;;;;;4982441;28;20034;-81
2023/08/12 03:16:57;;;;;;;6.05;4.90;;;16.70;99.90;;;;;;4970161;28;20555;-80
2023/08/12 03:19:23;;;;;;;8.30;5.00;;;16.70;99.90;;;;;;4968643;28;20085;-80
2023/08/12 03:21:48;;;;;;;6.72;5.70;;;16.70;99.90;;;;;;4987030;28;20110;-79
2023/08/12 03:24:14;;;;;;;5.88;5.38;;;16.60;99.90;;;;;;4989733;28;20634;-80
2023/08/12 03:26:40;;;;;;;5.30;4.80;;;16.60;99.90;;;;;;4959304;28;20034;-81
2023/08/12 03:29:06;;;;;;;5.05;4.63;;;16.60;99.90;;;;;;4971731;28;20087;-80
2023/08/12 03:31:34;;;;;;;6.13;5.53;;;16.60;99.90;;;;;;4966873;28;20033;-79
2023/08/12 03:34:01;;;;;;;5.38;4.97;;;16.60;99.90;;;;;;4978372;28;20061;-79
2023/08/12 03:36:29;;;;;;;4.65;4.20;;;16.50;99.90;;;;;;4973990;28;20130;-80
2023/08/12 03:38:55;;;;;;;5.53;5.03;;;16.50;99.90;;;;;;4992175;28;20061;-79
2023/08/12 03:41:25;;;;;;;5.45;4.95;;;16.40;99.90;;;;;;4968200;28;20038;-79
2023/08/12 03:43:52;;;;;;;5.68;5.15;;;16.40;99.90;;;;;;4963104;28;20038;-80
2023/08/12 03:46:18;;;;;;;6.05;5.50;;;16.40;99.90;;;;;;4973198;28;20031;-80
2023/08/12 03:48:43;;;;;;;6.13;5.50;;;16.30;99.90;;;;;;4977448;28;20027;-82
2023/08/12 03:51:11;;;;;;;6.00;5.40;;;16.30;99.90;;;;;;4960110;28;20031;-80
2023/08/12 03:53:36;;;;;;;7.85;4.70;;;16.30;99.90;;;;;;4953049;28;20042;-79
2023/08/12 03:56:02;;;;;;;5.88;5.25;;;16.20;99.90;;;;;;4967362;28;20023;-79
2023/08/12 03:58:29;;;;;;;7.15;4.95;;;16.20;99.90;;;;;;4984975;28;20119;-80
2023/08/12 04:00:55;;;;;;;6.78;6.07;;;16.30;99.90;;;;;;4976061;28;20046;-80
2023/08/12 04:03:21;;;;;;;5.88;5.28;;;16.20;99.90;;;;;;4971875;28;20503;-81
2023/08/12 04:05:49;;;;;;;5.78;5.22;;;16.20;99.90;;;;;;4953814;28;20082;-80
2023/08/12 04:08:15;;;;;;;6.80;5.13;;;16.20;99.90;;;;;;4980926;28;20045;-80
2023/08/12 04:10:45;;;;;;;5.47;4.90;;;16.30;99.90;;;;;;4968810;28;20035;-80
2023/08/12 04:13:11;;;;;;;5.18;4.68;;;16.30;99.90;;;;;;4981339;28;20048;-81
2023/08/12 04:15:36;;;;;;;12.80;4.88;;;16.40;99.90;;;;;;4985181;28;20027;-79
2023/08/12 04:18:02;;;;;;;7.03;4.25;;;16.30;99.90;;;;;;4990739;28;20102;-80
2023/08/12 04:20:28;;;;;;;4.97;4.50;;;16.30;99.90;;;;;;4970908;28;20029;-81
2023/08/12 04:22:54;;;;;;;5.10;4.60;;;16.30;99.90;;;;;;4976648;28;20031;-79
2023/08/12 04:25:20;;;;;;;5.50;5.00;;;16.30;99.90;;;;;;4987295;28;20577;-80
2023/08/12 04:27:47;;;;;;;6.25;5.65;;;16.30;99.90;;;;;;4982909;28;20039;-79
2023/08/12 04:30:13;;;;;;;4.82;4.35;;;16.30;99.90;;;;;;4972318;28;20041;-80
2023/08/12 04:32:39;;;;;;;6.15;5.60;;;16.40;99.90;;;;;;4967445;28;20517;-81
2023/08/12 04:35:08;;;;;;;6.97;4.95;;;16.40;99.90;;;;;;4979084;28;20025;-79
2023/08/12 04:37:36;;;;;;;5.85;5.32;;;16.40;99.90;;;;;;4986561;28;20037;-79
2023/08/12 04:40:07;;;;;;;5.53;4.80;;;16.50;99.90;;;;;;4960474;28;20048;-79
2023/08/12 04:42:33;;;;;;;4.80;4.28;;;16.50;99.90;;;;;;4991177;28;20030;-82
2023/08/12 04:44:59;;;;;;;6.32;5.05;;;16.60;99.90;;;;;;4973769;28;20522;-79
2023/08/12 04:47:43;;;;;;;5.60;4.93;;;16.60;99.90;;;;;;4991879;28;20411;-80
2023/08/12 04:50:12;;;;;;;5.35;4.85;;;16.70;99.90;;;;;;4972723;28;20052;-79
2023/08/12 04:52:38;;;;;;;5.60;5.10;;;16.70;99.90;;;;;;4968733;28;20752;-81
2023/08/12 04:55:04;;;;;;;5.55;5.05;;;16.80;99.90;;;;;;4970437;28;20061;-81
2023/08/12 04:57:30;;;;;;;6.22;4.70;;;16.80;99.90;;;;;;4972078;28;20037;-80
2023/08/12 04:59:56;;;;;;;5.40;4.95;;;16.90;99.90;;;;;;4990708;28;20039;-79
2023/08/12 05:02:22;;;;;;;5.35;4.90;;;16.90;99.90;;;;;;4992140;28;20074;-80
2023/08/12 05:04:49;;;;;;;4.85;4.45;;;17.00;99.90;;;;;;4974248;28;20034;-79
2023/08/12 05:07:16;;;;;;;4.72;4.32;;;17.00;99.90;;;;;;4978995;28;20577;-80
2023/08/12 05:09:43;;;;;;;6.25;4.97;;;17.10;99.90;;;;;;4982157;28;20034;-81
2023/08/12 05:12:12;;;;;;;7.40;4.93;;;17.10;99.90;;;;;;4974174;28;20098;-81
2023/08/12 05:14:39;;;;;;;4.25;3.92;;;17.20;99.90;;;;;;4970392;28;20028;-81
2023/08/12 05:17:05;;;;;;;6.13;4.47;;;17.30;99.90;;;;;;4978733;28;20038;-82
2023/08/12 05:19:32;;;;;;;4.82;4.43;;;17.40;99.90;;;;;;4982188;28;20125;-80
2023/08/12 05:21:58;;;;;;;5.07;4.53;;;17.40;99.90;;;;;;4976869;28;20030;-81
2023/08/12 05:24:24;;;;;;;5.70;4.57;;;17.50;99.90;;;;;;4995584;28;20061;-80
2023/08/12 05:26:50;;;;;;;6.70;4.53;;;17.50;99.90;;;;;;5001448;28;20492;-80
2023/08/12 05:29:15;;;;;;;6.57;4.65;;;17.60;99.90;;;;;;4976289;28;20046;-81
2023/08/12 05:31:41;;;;;;;5.93;4.60;;;17.60;99.90;;;;;;4986580;28;20064;-81
2023/08/12 05:34:07;;;;;;;6.72;4.60;;;17.70;99.90;;;;;;4992928;28;20550;-80
2023/08/12 05:36:32;;;;;;;4.57;4.18;;;17.70;99.90;;;;;;4983796;28;20066;-81
2023/08/12 05:38:59;;;;;;;4.63;4.22;;;17.80;99.90;;;;;;4973452;28;20041;-81
2023/08/12 05:41:25;;;;;;;5.13;4.60;;;17.90;99.90;;;;;;4983169;28;20027;-78
2023/08/12 05:43:50;;;;;;;5.75;4.55;;;18.00;99.90;;;;;;4994683;28;20035;-79
2023/08/12 05:46:16;;;;;;;5.32;4.55;;;18.10;99.90;;;;;;4981079;28;20045;-81
2023/08/12 05:48:42;;;;;;;7.53;4.93;;;18.10;99.90;;;;;;4990662;28;20510;-77
2023/08/12 05:51:08;;;;;;;4.68;4.28;;;18.10;99.90;;;;;;4986505;28;20148;-80
2023/08/12 05:53:34;;;;;;;4.35;3.97;;;18.20;99.90;;;;;;4983975;28;20038;-80
2023/08/12 05:56:00;;;;;;;4.47;4.07;;;18.30;99.90;;;;;;4987630;28;20027;-80
2023/08/12 05:58:25;;;;;;;4.25;3.95;;;18.40;99.90;;;;;;4991363;28;20038;-80
2023/08/12 06:00:52;;;;;;;3.97;3.67;;;18.50;99.90;;;;;;4995565;28;20102;-79
2023/08/12 06:03:17;;;;;;;6.10;4.10;;;18.60;99.90;;;;;;4992185;28;20053;-80
2023/08/12 06:05:46;;;;;;;4.72;3.97;;;18.80;99.90;;;;;;4991314;28;20042;-79
2023/08/12 06:08:12;;;;;;;3.38;3.05;;;18.90;99.90;;;;;;4991435;28;20031;-82
2023/08/12 06:10:38;;;;;;;5.68;3.92;;;19.20;99.90;;;;;;4990262;28;20037;-82
2023/08/12 06:13:04;;;;;;;4.45;4.05;;;19.50;99.90;;;;;;4991363;28;20030;-80
2023/08/12 06:15:33;;;;;;;4.70;3.60;;;19.90;99.90;;;;;;4994266;28;20498;-84
2023/08/12 06:18:00;;;;;;;4.10;3.70;;;20.30;99.90;;;;;;4989441;28;20030;-80
2023/08/12 06:20:26;;;;;;;5.30;3.72;;;20.50;99.90;;;;;;4995253;28;20517;-82
2023/08/12 06:22:52;;;;;;;3.92;3.53;;;20.70;99.90;;;;;;4991497;28;20031;-81
2023/08/12 06:25:18;;;;;;;4.65;3.70;;;20.70;99.90;;;;;;4998113;28;20038;-81
2023/08/12 06:27:45;;;;;;;4.40;4.00;;;20.80;99.90;;;;;;4993033;28;20384;-81
2023/08/12 06:30:13;;;;;;;3.95;3.40;;;20.80;99.90;;;;;;4985782;28;20048;-83
2023/08/12 06:32:39;;;;;;;4.80;3.20;;;20.90;99.90;;;;;;4994871;28;20049;-82
2023/08/12 06:35:05;;;;;;;3.63;3.33;;;21.20;99.90;;;;;;4991222;28;20373;-80
2023/08/12 06:37:32;;;;;;;3.92;3.30;;;21.60;99.90;;;;;;4965520;28;20113;-79
2023/08/12 06:39:57;;;;;;;3.53;3.10;;;21.80;99.90;;;;;;4989630;28;20031;-80
2023/08/12 06:42:23;;;;;;;3.50;3.20;;;22.10;99.90;;;;;;4973515;28;20038;-83
2023/08/12 06:44:55;;;;;;;4.63;3.65;;;22.10;99.90;;;;;;4975524;28;20030;-80
2023/08/12 06:47:21;;;;;;;3.50;3.20;;;22.20;99.90;;;;;;4990693;28;20042;-83
2023/08/12 06:49:47;;;;;;;4.05;3.55;;;22.00;99.90;;;;;;4991707;28;20129;-82
2023/08/12 06:52:13;;;;;;;3.55;3.10;;;21.90;99.90;;;;;;4989094;28;20090;-83
2023/08/12 06:54:39;;;;;;;3.65;3.35;;;21.60;99.90;;;;;;4990495;28;20022;-80
2023/08/12 06:57:05;;;;;;;3.92;3.53;;;21.30;99.90;;;;;;4989233;28;20131;-81
2023/08/12 06:59:30;;;;;;;4.30;3.58;;;21.10;99.90;;;;;;4988016;28;20038;-81
2023/08/12 07:01:56;;;;;;;4.78;3.90;;;21.10;99.90;;;;;;4983165;28;20093;-81
2023/08/12 07:04:22;;;;;;;6.47;3.35;;;20.90;99.90;;;;;;4987423;28;20041;-80
2023/08/12 07:06:48;;;;;;;3.78;3.42;;;20.80;99.90;;;;;;4990175;28;20030;-83
2023/08/12 07:09:14;;;;;;;4.30;3.90;;;20.70;99.90;;;;;;4990936;28;20037;-79
2023/08/12 07:11:40;;;;;;;4.55;3.70;;;20.60;99.90;;;;;;4989462;28;20031;-77
2023/08/12 07:14:06;;;;;;;5.43;3.85;;;20.60;99.90;;;;;;4986712;28;20081;-80
2023/08/12 07:16:31;;;;;;;4.10;3.70;;;20.60;99.90;;;;;;4994561;28;20022;-80
2023/08/12 07:18:57;;;;;;;4.63;3.72;;;20.50;99.90;;;;;;4991190;28;20031;-80
2023/08/12 07:21:23;;;;;;;3.97;3.50;;;20.50;99.90;;;;;;4976601;28;20116;-80
2023/08/12 07:23:49;;;;;;;4.80;3.60;;;20.50;99.90;;;;;;4998928;28;20027;-82
2023/08/12 07:26:14;;;;;;;3.80;3.50;;;20.40;99.90;;;;;;4993602;28;20085;-80
2023/08/12 07:28:41;;;;;;;6.07;3.75;;;20.40;99.90;;;;;;4986047;28;20090;-79
2023/08/12 07:31:07;;;;;;;6.15;3.92;;;20.40;99.90;;;;;;4988261;28;20081;-78
2023/08/12 07:33:32;;;;;;;3.38;3.05;;;20.40;99.90;;;;;;4992072;28;20034;-79
2023/08/12 07:35:58;;;;;;;4.03;3.17;;;20.40;99.90;;;;;;5000432;28;20035;-80
2023/08/12 07:38:24;;;;;;;3.70;3.35;;;20.40;99.90;;;;;;5001800;28;20034;-80
2023/08/12 07:40:50;;;;;;;5.80;4.13;;;20.40;99.90;;;;;;4982912;28;20081;-81
2023/08/12 07:43:15;;;;;;;4.68;3.92;;;20.30;99.90;;;;;;5000936;28;20513;-80
2023/08/12 07:45:41;;;;;;;5.55;3.72;;;20.40;99.90;;;;;;4996370;28;20034;-80
2023/08/12 07:48:07;;;;;;;4.97;3.60;;;20.40;99.90;;;;;;4990415;28;20090;-80
2023/08/12 07:50:33;;;;;;;4.78;3.95;;;20.30;99.90;;;;;;4996199;28;20053;-78
2023/08/12 07:52:58;;;;;;;4.63;3.92;;;20.30;99.90;;;;;;4988746;28;20061;-79
2023/08/12 07:55:24;;;;;;;6.40;4.00;;;20.30;99.90;;;;;;4977300;28;20042;-80
2023/08/12 07:57:50;;;;;;;4.00;3.60;;;20.30;99.90;;;;;;4952861;28;20061;-80
2023/08/12 08:00:16;;;;;;;5.25;3.70;;;20.30;99.90;;;;;;4988376;28;20043;-80
2023/08/12 08:02:42;;;;;;;7.18;3.75;;;20.20;99.90;;;;;;4968113;28;20041;-79
2023/08/12 08:05:08;;;;;;;5.93;3.85;;;20.20;99.90;;;;;;4992970;28;20045;-79
2023/08/12 08:07:34;;;;;;;6.38;3.97;;;20.20;99.90;;;;;;4989400;28;20430;-81
2023/08/12 08:10:00;;;;;;;4.00;3.60;;;20.20;99.90;;;;;;4989547;28;20156;-79
2023/08/12 08:12:25;;;;;;;5.00;3.65;;;20.20;99.90;;;;;;4977305;28;20039;-79
2023/08/12 08:14:51;;;;;;;4.55;3.60;;;20.20;99.90;;;;;;4990303;28;20123;-79
2023/08/12 08:17:17;;;;;;;5.50;3.70;;;20.30;99.90;;;;;;4972596;28;20073;-80
2023/08/12 08:19:43;;;;;;;7.40;4.15;;;20.30;99.90;;;;;;4995525;28;20053;-79
2023/08/12 08:22:09;;;;;;;5.50;4.15;;;20.40;99.90;;;;;;4998266;28;20046;-81
2023/08/12 08:24:35;;;;;;;4.05;3.65;;;20.50;99.90;;;;;;4988093;28;20042;-80
2023/08/12 08:27:00;;;;;;;4.45;4.05;;;20.50;99.90;;;;;;4990639;28;20113;-79
2023/08/12 08:29:26;;;;;;;3.88;3.55;;;20.60;99.90;;;;;;4989746;28;20093;-81
2023/08/12 08:31:52;;;;;;;4.13;3.65;;;20.70;99.90;;;;;;4992159;28;20685;-81
2023/08/12 08:34:17;;;;;;;3.80;3.33;;;20.90;99.90;;;;;;4995086;28;20077;-79
2023/08/12 08:36:43;;;;;;;4.05;3.67;;;21.00;99.90;;;;;;5001236;28;20038;-81
2023/08/12 08:39:09;;;;;;;3.53;3.22;;;21.10;99.90;;;;;;4998136;28;20128;-80
2023/08/12 08:41:39;;;;;;;3.50;3.20;;;21.20;99.90;;;;;;4995949;28;20033;-82
2023/08/12 08:44:08;;;;;;;5.80;3.38;;;21.30;99.90;;;;;;4993191;28;20043;-79
2023/08/12 08:46:35;;;;;;;7.25;4.72;;;21.30;99.90;;;;;;4989279;28;20045;-81
2023/08/12 08:49:00;;;;;;;7.30;5.53;;;21.40;99.90;;;;;;4992618;28;20028;-81
2023/08/12 08:51:30;;;;;;;6.32;5.20;;;21.40;99.90;;;;;;4995048;28;20247;-80
2023/08/12 08:53:56;;;;;;;6.00;4.00;;;21.40;99.90;;;;;;4999901;28;20088;-80
2023/08/12 08:56:23;;;;;;;8.75;5.80;;;21.50;99.90;;;;;;5000069;28;20034;-80
2023/08/12 08:58:49;;;;;;;5.82;4.10;;;21.50;99.90;;;;;;4997349;28;20440;-82
2023/08/12 09:01:17;;;;;;;3.33;3.00;;;21.60;99.90;;;;;;4992065;28;20042;-80
2023/08/12 09:03:44;;;;;;;3.35;3.05;;;21.70;99.90;;;;;;4992814;28;20435;-80
2023/08/12 09:06:09;;;;;;;3.67;2.90;;;21.80;99.90;;;;;;4989069;28;20038;-79
2023/08/12 09:08:37;;;;;;;2.95;2.58;;;22.00;99.90;;;;;;4990005;28;20042;-80
2023/08/12 09:11:04;;;;;;;4.25;3.00;;;22.10;99.90;;;;;;4991248;28;20033;-81
2023/08/12 09:13:29;;;;;;;2.97;2.78;;;22.20;99.90;;;;;;4972267;28;20034;-78
2023/08/12 09:15:56;;;;;;;3.40;3.08;;;22.30;99.90;;;;;;4994790;28;20061;-81
2023/08/12 09:18:24;;;;;;;3.15;2.83;;;22.40;99.90;;;;;;4990560;28;20022;-80
2023/08/12 09:20:51;;;;;;;3.35;2.70;;;22.40;99.90;;;;;;4984955;28;20062;-78
2023/08/12 09:23:18;;;;;;;3.78;3.03;;;22.30;99.90;;;;;;4991378;28;20019;-81
2023/08/12 09:25:44;;;;;;;10.20;3.45;;;22.30;99.90;;;;;;4991007;28;20442;-80
2023/08/12 09:28:11;;;;;;;3.35;2.72;;;22.20;99.90;;;;;;4990062;28;20682;-79
2023/08/12 09:30:37;;;;;;;3.85;3.22;;;22.20;99.90;;;;;;4988877;28;20116;-80
2023/08/12 09:33:08;;;;;;;3.42;3.13;;;22.30;99.90;;;;;;4987761;28;20042;-80
2023/08/12 09:35:41;;;;;;;3.00;2.80;;;22.50;99.90;;;;;;4992891;28;20030;-81
2023/08/12 09:38:11;;;;;;;2.72;2.53;;;22.50;99.90;;;;;;4998529;28;20045;-80
2023/08/12 09:40:37;;;;;;;4.63;2.88;;;22.70;99.90;;;;;;4992824;28;20077;-80
2023/08/12 09:43:04;;;;;;;2.85;2.60;;;22.80;99.90;;;;;;4993275;28;20038;-80
2023/08/12 09:45:31;;;;;;;3.20;2.53;;;23.00;99.90;;;;;;4991580;28;20070;-79
2023/08/12 09:47:57;;;;;;;2.85;2.65;;;23.10;99.90;;;;;;4989815;28;20422;-82
2023/08/12 09:50:25;;;;;;;2.42;2.25;;;23.20;99.90;;;;;;4985423;28;20525;-81
2023/08/12 09:52:52;;;;;;;3.83;2.70;;;23.30;99.90;;;;;;4987615;28;20031;-80
2023/08/12 09:55:19;;;;;;;3.55;3.05;;;23.30;99.90;;;;;;4988774;28;20098;-80
2023/08/12 09:57:49;;;;;;;2.40;2.20;;;23.30;99.90;;;;;;4991796;28;20030;-79
2023/08/12 10:00:19;;;;;;;3.63;2.45;;;23.30;99.90;;;;;;4980920;28;20019;-80
2023/08/12 10:02:46;;;;;;;3.70;2.95;;;23.30;99.90;;;;;;4989091;28;20501;-80
2023/08/12 10:05:22;;;;;;;3.10;2.80;;;23.30;99.90;;;;;;4987205;28;20604;-79
2023/08/12 10:07:49;;;;;;;3.53;2.92;;;23.30;99.90;;;;;;4986348;28;20045;-79
2023/08/12 10:10:15;;;;;;;3.90;3.03;;;23.40;99.90;;;;;;4986191;28;20090;-76
2023/08/12 10:12:41;;;;;;;3.38;3.08;;;23.40;99.90;;;;;;4988304;28;20026;-79
2023/08/12 10:15:08;;;;;;;6.43;2.90;;;23.50;99.90;;;;;;4984141;28;20117;-79
2023/08/12 10:17:35;;;;;;;2.95;2.63;;;23.60;99.90;;;;;;4986042;28;20114;-76
2023/08/12 10:20:04;;;;;;;3.78;2.70;;;23.60;99.90;;;;;;4990074;28;20018;-81
2023/08/12 10:22:34;;;;;;;3.65;2.47;;;23.70;99.90;;;;;;4985953;28;20057;-79
2023/08/12 10:25:02;;;;;;;4.35;2.60;;;23.90;99.90;;;;;;4989873;28;20043;-77
2023/08/12 10:27:28;;;;;;;2.90;2.70;;;23.90;99.90;;;;;;4986863;28;20106;-79
2023/08/12 10:29:57;;;;;;;2.58;2.22;;;24.00;99.90;;;;;;4986858;28;20033;-79
2023/08/12 10:32:27;;;;;;;3.67;2.47;;;24.00;99.90;;;;;;4972919;28;20030;-80
2023/08/12 10:34:56;;;;;;;2.17;2.08;;;24.20;99.90;;;;;;4988201;28;20014;-80
2023/08/12 10:37:27;;;;;;;2.25;2.05;;;24.30;99.90;;;;;;4980289;28;20066;-80
2023/08/12 10:39:53;;;;;;;2.45;2.25;;;24.50;99.90;;;;;;4985821;28;20030;-78
2023/08/12 10:42:45;;;;;;;2.78;2.22;;;24.70;99.90;;;;;;4974960;28;20058;-81
2023/08/12 10:45:13;;;;;;;2.30;2.10;;;24.80;99.90;;;;;;4995799;28;20671;-79
2023/08/12 10:47:46;;;;;;;2.65;2.40;;;25.00;99.90;;;;;;4994144;28;20042;-79
2023/08/12 10:50:18;;;;;;;2.97;2.33;;;25.00;99.90;;;;;;4978093;28;20031;-78
2023/08/12 10:52:45;;;;;;;2.38;2.03;;;25.10;99.90;;;;;;4985092;28;20416;-79
2023/08/12 10:55:21;;;;;;;2.58;2.20;;;25.00;99.90;;;;;;4986562;28;20458;-80
2023/08/12 10:57:48;;;;;;;3.42;2.10;;;25.10;99.90;;;;;;4982119;28;20041;-80
2023/08/12 11:00:21;;;;;;;4.35;3.05;;;25.20;99.90;;;;;;4984642;28;20030;-79
2023/08/12 11:02:57;;;;;;;2.58;2.38;;;25.10;99.90;;;;;;4987506;28;20065;-80
2023/08/12 11:05:24;;;;;;;2.35;2.15;;;25.10;99.90;;;;;;4985313;28;20039;-79
2023/08/12 11:08:00;;;;;;;2.70;2.50;;;25.20;99.90;;;;;;4991525;28;20031;-79
2023/08/12 11:10:28;;;;;;;2.80;2.60;;;25.30;99.90;;;;;;4967102;28;20042;-80
2023/08/12 11:12:55;;;;;;;3.67;2.63;;;25.40;99.90;;;;;;4987205;28;20425;-79
2023/08/12 11:15:46;;;;;;;2.50;2.30;;;25.50;99.90;;;;;;4992388;28;20049;-79
2023/08/12 11:18:16;;;;;;;2.58;2.38;;;25.70;99.90;;;;;;4983514;28;20037;-81
2023/08/12 11:21:04;;;;;;;2.58;2.38;;;25.80;99.60;;;;;;4983824;28;20120;-79
2023/08/12 11:23:31;;;;;;;2.33;2.13;;;25.90;99.10;;;;;;4969071;28;20059;-80
2023/08/12 11:25:58;;;;;;;2.30;2.10;;;26.00;99.90;;;;;;4971600;28;20427;-79
2023/08/12 11:28:24;;;;;;;2.50;2.30;;;26.10;99.60;;;;;;4983027;28;20033;-80
2023/08/12 11:30:49;;;;;;;3.28;2.35;;;26.20;99.90;;;;;;4984076;28;20068;-80
2023/08/12 11:33:18;;;;;;;3.47;2.30;;;26.30;99.90;;;;;;4988667;28;20038;-79
2023/08/12 11:35:44;;;;;;;2.58;2.28;;;26.40;98.20;;;;;;4973159;28;20078;-79
2023/08/12 11:38:10;;;;;;;2.78;2.33;;;26.50;99.70;;;;;;4983524;28;20030;-78
2023/08/12 11:40:36;;;;;;;2.47;2.28;;;26.60;99.90;;;;;;4987886;28;20030;-79
2023/08/12 11:43:03;;;;;;;2.22;2.03;;;26.70;99.90;;;;;;4986069;28;20502;-78
2023/08/12 11:45:29;;;;;;;5.03;2.20;;;26.70;95.80;;;;;;4985369;28;20033;-77
2023/08/12 11:47:55;;;;;;;3.13;2.20;;;26.80;99.40;;;;;;4984634;28;20105;-78
2023/08/12 11:50:26;;;;;;;2.85;2.00;;;26.90;97.70;;;;;;4985113;28;20045;-80
2023/08/12 11:52:53;;;;;;;2.75;2.17;;;27.00;95.80;;;;;;4982639;28;20042;-77
2023/08/12 11:55:19;;;;;;;2.50;1.98;;;27.20;99.20;;;;;;4985004;28;20034;-79
2023/08/12 11:57:45;;;;;;;2.83;1.85;;;27.30;99.60;;;;;;4983175;28;20121;-79
2023/08/12 12:00:15;;;;;;;2.78;2.13;;;27.30;99.80;;;;;;4975205;28;20695;-79
2023/08/12 12:03:01;;;;;;;2.05;1.88;;;27.40;97.80;;;;;;4982509;28;20046;-78
2023/08/12 12:05:30;;;;;;;3.03;2.03;;;27.50;98.30;;;;;;4977827;28;20042;-79
2023/08/12 12:07:56;;;;;;;2.85;1.70;;;27.50;98.40;;;;;;4978878;28;20102;-77
2023/08/12 12:10:30;;;;;;;2.30;2.10;;;27.50;95.90;;;;;;4974255;28;20126;-80
2023/08/12 12:12:56;;;;;;;1.70;1.60;;;27.60;98.50;;;;;;4983379;28;20043;-79
2023/08/12 12:15:23;;;;;;;3.55;2.03;;;27.50;98.30;;;;;;4964856;28;20042;-78
2023/08/12 12:17:50;;;;;;;3.97;2.20;;;27.40;97.40;;;;;;4976287;28;20078;-78
2023/08/12 12:20:17;;;;;;;2.50;2.30;;;27.40;98.90;;;;;;4978527;28;20045;-77
2023/08/12 12:22:44;;;;;;;3.05;2.10;;;27.40;98.90;;;;;;4981153;28;20039;-77
2023/08/12 12:25:15;;;;;;;2.28;1.80;;;27.40;99.70;;;;;;4982214;28;20039;-78
2023/08/12 12:27:42;;;;;;;2.50;2.13;;;27.50;96.40;;;;;;4978346;28;20047;-79
2023/08/12 12:30:13;;;;;;;1.90;1.75;;;27.70;97.70;;;;;;4984728;28;20030;-77
2023/08/12 12:32:39;;;;;;;2.45;2.00;;;27.80;93.90;;;;;;4984637;28;20191;-78
2023/08/12 12:35:08;;;;;;;2.85;2.20;;;27.90;92.10;;;;;;4985238;28;20163;-79
2023/08/12 12:37:34;;;;;;;3.03;2.35;;;27.90;92.20;;;;;;4987225;28;20038;-79
2023/08/12 12:40:00;;;;;;;3.13;2.45;;;28.10;95.50;;;;;;4986330;28;20124;-78
2023/08/12 12:42:26;;;;;;;2.45;2.03;;;28.20;96.30;;;;;;4976853;28;20117;-78
2023/08/12 12:44:51;;;;;;;2.33;2.13;;;28.30;95.20;;;;;;4981345;28;20034;-77